Time;durP1;ratioP1;P1;durP2;ratioP2;P2;SDS_P1;SDS_P2;PMS_P1;PMS_P2;Temp;Humidity;BMP_temperature;BMP_pressure;BME280_temperature;BME280_humidity;BME280_pressure;Samples;Min_cycle;Max_cycle;Signal;HPM_P1;HPM_P2
2022/03/19 00:00:58;;;;;;;17.00;7.13;;;;;;;;;;4999586;28;93666;-75
2022/03/19 00:03:27;;;;;;;22.75;7.75;;;;;;;;;;4999802;28;92235;-75
2022/03/19 00:05:54;;;;;;;20.70;7.38;;;;;;;;;;4999704;28;93328;-75
2022/03/19 00:08:20;;;;;;;19.92;7.45;;;;;;;;;;4999681;28;92952;-72
2022/03/19 00:10:47;;;;;;;13.40;7.00;;;;;;;;;;4999789;28;92196;-73
2022/03/19 00:13:13;;;;;;;17.75;7.18;;;;;;;;;;4999653;28;92990;-73
2022/03/19 00:15:40;;;;;;;18.80;7.40;;;;;;;;;;5001013;28;95851;-74
2022/03/19 00:18:07;;;;;;;24.30;7.03;;;;;;;;;;4999120;28;96725;-72
2022/03/19 00:20:36;;;;;;;19.17;7.10;;;;;;;;;;4999175;28;94204;-73
2022/03/19 00:23:03;;;;;;;21.00;7.07;;;;;;;;;;4999253;28;92307;-74
2022/03/19 00:25:29;;;;;;;18.00;6.30;;;;;;;;;;4999894;28;92938;-74
2022/03/19 00:27:56;;;;;;;21.77;7.30;;;;;;;;;;4999155;28;93081;-74
2022/03/19 00:30:22;;;;;;;25.95;7.30;;;;;;;;;;4999568;28;92164;-75
2022/03/19 00:32:48;;;;;;;22.50;6.60;;;;;;;;;;4999939;28;93429;-73
2022/03/19 00:35:16;;;;;;;22.55;6.68;;;;;;;;;;4999090;28;93602;-73
2022/03/19 00:37:46;;;;;;;15.07;6.55;;;;;;;;;;5002344;28;92339;-73
2022/03/19 00:40:14;;;;;;;16.33;6.43;;;;;;;;;;4997232;28;96235;-73
2022/03/19 00:42:41;;;;;;;17.90;5.93;;;;;;;;;;4998656;28;92523;-73
2022/03/19 00:45:11;;;;;;;18.70;5.97;;;;;;;;;;4999349;28;93240;-73
2022/03/19 00:47:37;;;;;;;14.73;5.53;;;;;;;;;;4998940;28;93553;-74
2022/03/19 00:50:04;;;;;;;17.58;6.32;;;;;;;;;;4998637;28;92298;-73
2022/03/19 00:52:31;;;;;;;15.65;5.82;;;;;;;;;;4999168;28;93432;-74
2022/03/19 00:54:57;;;;;;;19.25;5.88;;;;;;;;;;4998703;28;93546;-73
2022/03/19 00:57:24;;;;;;;19.38;6.22;;;;;;;;;;4999557;28;91655;-73
2022/03/19 00:59:51;;;;;;;16.98;6.10;;;;;;;;;;5001785;28;93368;-74
2022/03/19 01:02:17;;;;;;;17.23;5.70;;;;;;;;;;4998929;28;92270;-74
2022/03/19 01:04:44;;;;;;;18.90;5.88;;;;;;;;;;4997881;28;94692;-72
2022/03/19 01:07:10;;;;;;;20.67;6.20;;;;;;;;;;4997965;28;93718;-73
2022/03/19 01:09:37;;;;;;;18.08;6.20;;;;;;;;;;4998084;28;92366;-72
2022/03/19 01:12:03;;;;;;;17.13;5.70;;;;;;;;;;4998749;28;92858;-72
2022/03/19 01:14:30;;;;;;;21.63;5.68;;;;;;;;;;4998714;28;93317;-72
2022/03/19 01:16:57;;;;;;;21.23;6.38;;;;;;;;;;4998612;28;92414;-73
2022/03/19 01:19:52;;;;;;;22.48;5.55;;;;;;;;;;4998381;28;93330;-73
2022/03/19 01:22:09;;;;;;;11.35;4.68;;;;;;;;;;5001545;28;93069;-73
2022/03/19 01:24:36;;;;;;;23.35;6.05;;;;;;;;;;4998544;28;92268;-73
2022/03/19 01:27:03;;;;;;;18.77;6.05;;;;;;;;;;4998402;28;92971;-72
2022/03/19 01:29:29;;;;;;;15.43;5.65;;;;;;;;;;4996975;28;94707;-73
2022/03/19 01:31:56;;;;;;;19.02;5.78;;;;;;;;;;4998046;28;95725;-75
2022/03/19 01:34:22;;;;;;;16.67;5.30;;;;;;;;;;4998218;28;93647;-74
2022/03/19 01:36:48;;;;;;;18.08;5.47;;;;;;;;;;4998382;28;92299;-74
2022/03/19 01:39:15;;;;;;;17.70;5.88;;;;;;;;;;4998448;28;92447;-74
2022/03/19 01:41:42;;;;;;;16.15;5.28;;;;;;;;;;4998198;28;93622;-74
2022/03/19 01:44:08;;;;;;;13.57;5.88;;;;;;;;;;5000557;28;92467;-73
2022/03/19 01:46:52;;;;;;;16.85;5.43;;;;;;;;;;4998254;28;92172;-74
2022/03/19 01:49:18;;;;;;;17.27;6.10;;;;;;;;;;4998152;28;92238;-74
2022/03/19 01:51:45;;;;;;;17.88;6.03;;;;;;;;;;4998257;28;93493;-73
2022/03/19 01:54:11;;;;;;;21.58;5.93;;;;;;;;;;4996004;28;97341;-73
2022/03/19 01:56:37;;;;;;;13.52;5.78;;;;;;;;;;4997551;28;92339;-73
2022/03/19 01:59:06;;;;;;;14.25;5.80;;;;;;;;;;4996611;28;95835;-73
2022/03/19 02:01:32;;;;;;;17.02;5.43;;;;;;;;;;4997718;28;93696;-73
2022/03/19 02:04:00;;;;;;;18.58;5.35;;;;;;;;;;5000945;28;92361;-74
2022/03/19 02:06:26;;;;;;;19.98;5.97;;;;;;;;;;4997724;28;93621;-73
2022/03/19 02:08:53;;;;;;;11.93;6.03;;;;;;;;;;4998007;28;92153;-74
2022/03/19 02:11:20;;;;;;;18.52;6.30;;;;;;;;;;4997896;28;93703;-75
2022/03/19 02:13:47;;;;;;;20.23;5.80;;;;;;;;;;4997394;28;93840;-72
2022/03/19 02:16:13;;;;;;;18.88;5.75;;;;;;;;;;4996912;28;93354;-73
2022/03/19 02:18:39;;;;;;;14.90;5.72;;;;;;;;;;4996132;28;94778;-73
2022/03/19 02:21:07;;;;;;;11.98;4.95;;;;;;;;;;4996547;28;93666;-72
2022/03/19 02:26:18;;;;;;;13.95;6.00;;;;;;;;;;5000452;28;93685;-74
2022/03/19 02:28:45;;;;;;;21.90;6.47;;;;;;;;;;4997762;28;92779;-73
2022/03/19 02:31:11;;;;;;;20.45;6.15;;;;;;;;;;4997419;28;93279;-72
2022/03/19 02:33:37;;;;;;;19.40;5.63;;;;;;;;;;4997360;28;93162;-73
2022/03/19 02:36:05;;;;;;;24.42;5.88;;;;;;;;;;4998064;28;91413;-72
2022/03/19 02:38:31;;;;;;;15.43;6.05;;;;;;;;;;4997050;28;93284;-72
2022/03/19 02:40:57;;;;;;;24.90;6.90;;;;;;;;;;4997014;28;93681;-73
2022/03/19 02:43:24;;;;;;;12.30;5.30;;;;;;;;;;4994611;28;95067;-73
2022/03/19 02:45:50;;;;;;;19.48;6.30;;;;;;;;;;4994194;28;95130;-72
2022/03/19 02:48:17;;;;;;;20.33;6.30;;;;;;;;;;5000179;28;93513;-73
2022/03/19 02:50:43;;;;;;;16.35;5.82;;;;;;;;;;4997316;28;93192;-75
2022/03/19 02:53:13;;;;;;;17.40;6.30;;;;;;;;;;4996705;28;93808;-74
2022/03/19 02:55:41;;;;;;;27.40;7.40;;;;;;;;;;4997147;28;92192;-73
2022/03/19 02:58:08;;;;;;;17.52;6.07;;;;;;;;;;4997275;28;93929;-74
2022/03/19 03:00:35;;;;;;;21.13;5.65;;;;;;;;;;4997729;28;92352;-74
2022/03/19 03:03:04;;;;;;;14.50;6.00;;;;;;;;;;4997238;28;92340;-74
2022/03/19 03:05:31;;;;;;;15.93;6.00;;;;;;;;;;4996883;28;93108;-75
2022/03/19 03:07:57;;;;;;;23.45;6.32;;;;;;;;;;4995216;28;95542;-74
2022/03/19 03:10:24;;;;;;;12.00;5.95;;;;;;;;;;5000163;28;92897;-72
2022/03/19 03:12:51;;;;;;;21.15;6.15;;;;;;;;;;4997246;28;93502;-73
2022/03/19 03:15:17;;;;;;;16.52;6.47;;;;;;;;;;5000634;28;92434;-74
2022/03/19 03:17:44;;;;;;;18.92;5.72;;;;;;;;;;4996170;28;92449;-74
2022/03/19 03:20:10;;;;;;;19.10;6.15;;;;;;;;;;4996092;28;93617;-74
2022/03/19 03:22:37;;;;;;;18.98;6.38;;;;;;;;;;4995466;28;93079;-75
2022/03/19 03:25:04;;;;;;;21.20;6.30;;;;;;;;;;4996588;28;93137;-73
2022/03/19 03:27:31;;;;;;;12.98;5.80;;;;;;;;;;4990949;28;96583;-74
2022/03/19 03:29:57;;;;;;;17.35;6.30;;;;;;;;;;4994715;28;92287;-73
2022/03/19 03:32:23;;;;;;;15.73;5.95;;;;;;;;;;4997544;28;95508;-73
2022/03/19 03:34:50;;;;;;;22.48;7.05;;;;;;;;;;4999671;28;92356;-73
2022/03/19 03:37:18;;;;;;;13.77;6.25;;;;;;;;;;4998200;28;93331;-74
2022/03/19 03:39:45;;;;;;;19.90;6.20;;;;;;;;;;4999291;28;94053;-72
2022/03/19 03:42:11;;;;;;;15.75;5.63;;;;;;;;;;5000165;28;92299;-72
2022/03/19 03:44:40;;;;;;;20.33;6.35;;;;;;;;;;4999515;28;93385;-73
2022/03/19 03:47:06;;;;;;;19.45;7.15;;;;;;;;;;5000068;28;94099;-73
2022/03/19 03:49:32;;;;;;;18.85;6.78;;;;;;;;;;5000763;28;91428;-73
2022/03/19 03:51:59;;;;;;;21.95;6.75;;;;;;;;;;5000282;28;92738;-74
2022/03/19 03:54:25;;;;;;;19.70;6.70;;;;;;;;;;5002829;28;93624;-74
2022/03/19 03:56:52;;;;;;;21.38;6.78;;;;;;;;;;4998569;28;94725;-74
2022/03/19 03:59:19;;;;;;;18.27;6.03;;;;;;;;;;4999280;28;93244;-73
2022/03/19 04:01:46;;;;;;;19.48;6.53;;;;;;;;;;4999753;28;92233;-73
2022/03/19 04:04:12;;;;;;;25.88;7.03;;;;;;;;;;4999849;28;93424;-73
2022/03/19 04:06:39;;;;;;;20.17;6.40;;;;;;;;;;4998082;28;94040;-74
2022/03/19 04:09:05;;;;;;;20.77;8.23;;;;;;;;;;4998969;28;92436;-73
2022/03/19 04:11:31;;;;;;;20.75;6.43;;;;;;;;;;4999807;28;93355;-73
2022/03/19 04:13:59;;;;;;;19.38;6.68;;;;;;;;;;5003151;28;92526;-73
2022/03/19 04:16:26;;;;;;;26.52;7.65;;;;;;;;;;4999955;28;93012;-73
2022/03/19 04:18:53;;;;;;;14.20;6.20;;;;;;;;;;4999493;28;93661;-73
2022/03/19 04:21:20;;;;;;;19.13;7.00;;;;;;;;;;4997745;28;94816;-72
2022/03/19 04:23:47;;;;;;;22.83;7.25;;;;;;;;;;4999718;28;95697;-73
2022/03/19 04:26:13;;;;;;;16.95;7.30;;;;;;;;;;4999478;28;93431;-74
2022/03/19 04:28:40;;;;;;;22.67;8.02;;;;;;;;;;4999786;28;92348;-72
2022/03/19 04:31:06;;;;;;;23.50;7.75;;;;;;;;;;4999392;28;93664;-73
2022/03/19 04:33:33;;;;;;;24.40;8.15;;;;;;;;;;4999238;28;93754;-74
2022/03/19 04:38:46;;;;;;;26.42;6.97;;;;;;;;;;4999730;28;92656;-73
2022/03/19 04:41:13;;;;;;;22.95;8.45;;;;;;;;;;4999228;28;92419;-74
2022/03/19 04:43:39;;;;;;;21.52;7.80;;;;;;;;;;4998594;28;94556;-74
2022/03/19 04:46:06;;;;;;;20.08;7.57;;;;;;;;;;4996513;28;96931;-74
2022/03/19 04:48:32;;;;;;;24.60;8.35;;;;;;;;;;4997931;28;92393;-74
2022/03/19 04:50:59;;;;;;;14.55;6.70;;;;;;;;;;4999357;28;93145;-74
2022/03/19 04:53:25;;;;;;;20.30;8.23;;;;;;;;;;4998857;28;93960;-73
2022/03/19 04:55:52;;;;;;;27.35;8.05;;;;;;;;;;4999041;28;92281;-74
2022/03/19 04:58:18;;;;;;;24.38;7.93;;;;;;;;;;5001774;28;94336;-74
2022/03/19 05:00:44;;;;;;;23.63;7.82;;;;;;;;;;4998632;28;93306;-74
2022/03/19 05:03:13;;;;;;;18.20;8.00;;;;;;;;;;4999386;28;93085;-74
2022/03/19 05:05:40;;;;;;;18.23;7.53;;;;;;;;;;4998781;28;93491;-74
2022/03/19 05:08:06;;;;;;;17.83;7.70;;;;;;;;;;4998914;28;92242;-72
2022/03/19 05:13:18;;;;;;;19.15;8.23;;;;;;;;;;4998038;28;93672;-73
2022/03/19 05:15:44;;;;;;;24.00;8.52;;;;;;;;;;4998797;28;92345;-74
2022/03/19 05:18:12;;;;;;;23.05;9.23;;;;;;;;;;4998710;28;92808;-73
2022/03/19 05:20:38;;;;;;;21.83;9.25;;;;;;;;;;5001432;28;93402;-73
2022/03/19 05:23:06;;;;;;;20.73;9.57;;;;;;;;;;4998972;28;93216;-73
2022/03/19 05:25:32;;;;;;;26.65;9.75;;;;;;;;;;4999154;28;93517;-74
2022/03/19 05:27:59;;;;;;;23.50;9.25;;;;;;;;;;4998778;28;91535;-74
2022/03/19 05:30:25;;;;;;;26.58;9.43;;;;;;;;;;4998632;28;93298;-74
2022/03/19 05:32:52;;;;;;;23.63;9.85;;;;;;;;;;4997461;28;93674;-73
2022/03/19 05:35:18;;;;;;;24.08;9.32;;;;;;;;;;4996932;28;94674;-75
2022/03/19 05:37:47;;;;;;;26.20;9.18;;;;;;;;;;4998217;28;95086;-72
2022/03/19 05:40:15;;;;;;;20.27;9.77;;;;;;;;;;4997741;28;93577;-72
2022/03/19 05:42:42;;;;;;;19.08;9.05;;;;;;;;;;5000446;28;92317;-74
2022/03/19 05:45:10;;;;;;;24.25;10.02;;;;;;;;;;4998032;28;93253;-73
2022/03/19 05:47:39;;;;;;;22.65;9.88;;;;;;;;;;4997253;28;92370;-73
2022/03/19 05:50:06;;;;;;;20.50;10.25;;;;;;;;;;4998146;28;93472;-73
2022/03/19 05:52:33;;;;;;;21.85;10.02;;;;;;;;;;4997600;28;92185;-72
2022/03/19 05:54:59;;;;;;;14.63;10.02;;;;;;;;;;4996521;28;92279;-74
2022/03/19 05:57:25;;;;;;;24.08;9.23;;;;;;;;;;4997215;28;93388;-73
2022/03/19 05:59:55;;;;;;;19.27;9.73;;;;;;;;;;4996114;28;95817;-73
2022/03/19 06:02:22;;;;;;;22.58;10.35;;;;;;;;;;4997998;28;92692;-73
2022/03/19 06:04:49;;;;;;;19.85;9.52;;;;;;;;;;4999858;28;93651;-73
2022/03/19 06:07:15;;;;;;;27.40;10.30;;;;;;;;;;4997537;28;92294;-74
2022/03/19 06:09:42;;;;;;;32.38;11.60;;;;;;;;;;4997112;28;92710;-73
2022/03/19 06:12:08;;;;;;;25.10;10.55;;;;;;;;;;4997069;28;93096;-72
2022/03/19 06:14:35;;;;;;;23.85;10.23;;;;;;;;;;4996850;28;92274;-74
2022/03/19 06:17:01;;;;;;;30.60;10.35;;;;;;;;;;4997498;28;93507;-73
2022/03/19 06:19:28;;;;;;;25.88;11.15;;;;;;;;;;4996490;28;93681;-73
2022/03/19 06:21:54;;;;;;;24.08;10.82;;;;;;;;;;4996973;28;92540;-73
2022/03/19 06:24:23;;;;;;;32.10;11.40;;;;;;;;;;4998132;28;94712;-74
2022/03/19 06:26:51;;;;;;;29.38;11.48;;;;;;;;;;4996800;28;92268;-74
2022/03/19 06:29:17;;;;;;;29.75;11.60;;;;;;;;;;4996797;28;93635;-74
2022/03/19 06:31:43;;;;;;;23.05;10.13;;;;;;;;;;4996491;28;93661;-74
2022/03/19 06:34:10;;;;;;;22.33;10.32;;;;;;;;;;4996908;28;92366;-73
2022/03/19 06:39:21;;;;;;;26.05;10.90;;;;;;;;;;4995421;28;94158;-72
2022/03/19 06:41:47;;;;;;;23.55;11.27;;;;;;;;;;4997027;28;91661;-72
2022/03/19 06:44:14;;;;;;;23.98;10.70;;;;;;;;;;4995986;28;92944;-74
2022/03/19 06:46:40;;;;;;;25.88;10.65;;;;;;;;;;4999167;28;94647;-73
2022/03/19 06:49:06;;;;;;;21.15;10.18;;;;;;;;;;4994417;28;94759;-76
2022/03/19 06:51:33;;;;;;;18.27;9.23;;;;;;;;;;4996404;28;93761;-73
2022/03/19 06:53:59;;;;;;;20.02;8.55;;;;;;;;;;4997081;28;92348;-74
2022/03/19 06:56:25;;;;;;;19.25;8.95;;;;;;;;;;4996917;28;93531;-75
2022/03/19 06:58:55;;;;;;;17.17;8.13;;;;;;;;;;4996721;28;93493;-73
2022/03/19 07:01:21;;;;;;;23.20;9.00;;;;;;;;;;4996963;28;92309;-74
2022/03/19 07:03:48;;;;;;;16.02;7.53;;;;;;;;;;4996513;28;92882;-74
2022/03/19 07:06:15;;;;;;;14.77;8.10;;;;;;;;;;4997542;28;92288;-73
2022/03/19 07:09:02;;;;;;;16.80;7.97;;;;;;;;;;4999188;28;92290;-74
2022/03/19 07:11:31;;;;;;;18.55;8.48;;;;;;;;;;4996971;28;93581;-75
2022/03/19 07:13:58;;;;;;;15.00;7.65;;;;;;;;;;4995369;28;94986;-73
2022/03/19 07:16:24;;;;;;;18.08;8.25;;;;;;;;;;4995453;28;95933;-73
2022/03/19 07:18:51;;;;;;;21.40;7.68;;;;;;;;;;4996537;28;93475;-72
2022/03/19 07:21:17;;;;;;;17.80;7.65;;;;;;;;;;4996953;28;92367;-73
2022/03/19 07:23:49;;;;;;;22.08;7.88;;;;;;;;;;4996740;28;93393;-73
2022/03/19 07:26:16;;;;;;;16.63;7.38;;;;;;;;;;4996512;28;93082;-74
2022/03/19 07:28:43;;;;;;;19.08;7.82;;;;;;;;;;4996422;28;92174;-73
2022/03/19 07:31:09;;;;;;;15.20;7.57;;;;;;;;;;5000063;28;93502;-74
2022/03/19 07:33:36;;;;;;;17.67;6.97;;;;;;;;;;4996689;28;92282;-75
2022/03/19 07:36:03;;;;;;;15.13;7.15;;;;;;;;;;4996700;28;93574;-73
2022/03/19 07:38:33;;;;;;;19.92;6.68;;;;;;;;;;4995101;28;96278;-74
2022/03/19 07:43:44;;;;;;;13.68;6.22;;;;;;;;;;4996093;28;93562;-74
2022/03/19 07:46:11;;;;;;;13.25;6.75;;;;;;;;;;4995150;28;93800;-74
2022/03/19 07:48:38;;;;;;;15.77;6.60;;;;;;;;;;4996574;28;92130;-72
2022/03/19 07:51:04;;;;;;;10.80;5.85;;;;;;;;;;4996461;28;93695;-70
2022/03/19 07:53:31;;;;;;;15.63;6.70;;;;;;;;;;4999274;28;93468;-75
2022/03/19 07:55:57;;;;;;;15.30;6.57;;;;;;;;;;4996624;28;92839;-73
2022/03/19 07:58:23;;;;;;;14.65;6.30;;;;;;;;;;4996328;28;93428;-73
2022/03/19 08:00:51;;;;;;;17.17;6.00;;;;;;;;;;4995511;28;92123;-75
2022/03/19 08:03:19;;;;;;;11.70;6.43;;;;;;;;;;4994858;28;94559;-74
2022/03/19 08:05:45;;;;;;;16.05;6.78;;;;;;;;;;4996339;28;93315;-74
2022/03/19 08:08:12;;;;;;;16.38;6.22;;;;;;;;;;4995048;28;92398;-74
2022/03/19 08:10:39;;;;;;;14.43;5.80;;;;;;;;;;4995863;28;93353;-74
2022/03/19 08:13:06;;;;;;;12.88;6.10;;;;;;;;;;4995883;28;94384;-75
2022/03/19 08:15:40;;;;;;;14.98;7.15;;;;;;;;;;4999022;28;92215;-74
2022/03/19 08:18:09;;;;;;;12.40;6.55;;;;;;;;;;4995892;28;93133;-75
2022/03/19 08:20:35;;;;;;;18.70;6.38;;;;;;;;;;4998292;28;91542;-75
2022/03/19 08:23:02;;;;;;;14.38;6.78;;;;;;;;;;4998992;28;92580;-76
2022/03/19 08:25:35;;;;;;;16.73;6.47;;;;;;;;;;4999667;28;92923;-74
2022/03/19 08:28:02;;;;;;;15.70;6.43;;;;;;;;;;4997962;28;94694;-77
2022/03/19 08:30:31;;;;;;;16.98;6.88;;;;;;;;;;4998426;28;96224;-76
2022/03/19 08:32:57;;;;;;;20.83;6.53;;;;;;;;;;4999138;28;94841;-77
2022/03/19 08:35:24;;;;;;;11.85;6.18;;;;;;;;;;5001918;28;92322;-78
2022/03/19 08:40:15;;;;;;;12.07;6.15;;;;;;;;;;4999014;28;95021;-75
2022/03/19 08:40:37;;;;;;;16.95;5.97;;;;;;;;;;4999362;28;92558;-75
2022/03/19 08:43:03;;;;;;;19.23;7.47;;;;;;;;;;4998484;28;94433;-77
2022/03/19 08:45:29;;;;;;;13.80;6.10;;;;;;;;;;4999312;28;93122;-78
2022/03/19 08:47:57;;;;;;;13.75;5.88;;;;;;;;;;4999253;28;92372;-77
2022/03/19 08:50:26;;;;;;;12.10;5.88;;;;;;;;;;4999025;28;92382;-75
2022/03/19 08:52:53;;;;;;;10.68;5.03;;;;;;;;;;4996334;28;96502;-76
2022/03/19 08:55:19;;;;;;;12.20;5.05;;;;;;;;;;4998882;28;92415;-78
2022/03/19 08:57:45;;;;;;;9.90;5.38;;;;;;;;;;5001958;28;93169;-76
2022/03/19 09:00:13;;;;;;;11.05;4.75;;;;;;;;;;4999162;28;92215;-74
2022/03/19 09:02:40;;;;;;;8.07;4.28;;;;;;;;;;4998184;28;94550;-74
2022/03/19 09:05:07;;;;;;;15.50;5.35;;;;;;;;;;4998917;28;94064;-77
2022/03/19 09:07:33;;;;;;;11.38;5.45;;;;;;;;;;4998527;28;92283;-76
2022/03/19 09:10:02;;;;;;;13.70;5.07;;;;;;;;;;4999126;28;93216;-72
2022/03/19 09:12:35;;;;;;;12.10;4.53;;;;;;;;;;4998240;28;94872;-75
2022/03/19 09:15:01;;;;;;;12.68;5.15;;;;;;;;;;4998798;28;93125;-75
2022/03/19 09:17:28;;;;;;;13.70;4.93;;;;;;;;;;4996714;28;94705;-74
2022/03/19 09:19:54;;;;;;;15.07;5.35;;;;;;;;;;4999890;28;93614;-75
2022/03/19 09:22:20;;;;;;;11.30;4.97;;;;;;;;;;4997999;28;93380;-75
2022/03/19 09:24:48;;;;;;;14.93;5.07;;;;;;;;;;4997378;28;93747;-74
2022/03/19 09:27:15;;;;;;;8.98;4.38;;;;;;;;;;4997708;28;92315;-75
2022/03/19 09:29:42;;;;;;;9.45;3.95;;;;;;;;;;4997600;28;93824;-77
2022/03/19 09:32:11;;;;;;;11.43;4.22;;;;;;;;;;4996953;28;94748;-76
2022/03/19 09:34:38;;;;;;;4.07;2.95;;;;;;;;;;4997728;28;91659;-76
2022/03/19 09:37:04;;;;;;;9.43;3.25;;;;;;;;;;4997549;28;92642;-76
2022/03/19 09:39:31;;;;;;;6.80;2.75;;;;;;;;;;4997544;28;94124;-76
2022/03/19 09:41:58;;;;;;;8.35;3.13;;;;;;;;;;4999277;28;94644;-77
2022/03/19 09:44:25;;;;;;;7.47;3.22;;;;;;;;;;4996711;28;93196;-76
2022/03/19 09:46:53;;;;;;;6.30;3.10;;;;;;;;;;4998125;28;93983;-76
2022/03/19 09:49:19;;;;;;;7.22;3.10;;;;;;;;;;4997499;28;94140;-76
2022/03/19 09:51:50;;;;;;;7.07;3.28;;;;;;;;;;4997513;28;93926;-76
2022/03/19 09:54:16;;;;;;;6.43;2.60;;;;;;;;;;4996924;28;92421;-74
2022/03/19 09:56:43;;;;;;;7.85;2.47;;;;;;;;;;4997280;28;92771;-75
2022/03/19 09:59:09;;;;;;;3.40;2.30;;;;;;;;;;4997275;28;93303;-76
2022/03/19 10:01:37;;;;;;;9.27;2.97;;;;;;;;;;4997803;28;92370;-74
2022/03/19 10:04:05;;;;;;;10.90;3.03;;;;;;;;;;4996203;28;93326;-75
2022/03/19 10:09:18;;;;;;;7.75;3.00;;;;;;;;;;4994745;28;95759;-74
2022/03/19 10:11:50;;;;;;;3.95;2.70;;;;;;;;;;4996812;28;94173;-74
2022/03/19 10:14:23;;;;;;;8.48;3.53;;;;;;;;;;4996659;28;92398;-76
2022/03/19 10:16:51;;;;;;;8.05;2.65;;;;;;;;;;4996837;28;95797;-72
2022/03/19 10:19:18;;;;;;;14.10;3.83;;;;;;;;;;4996938;28;93149;-71
2022/03/19 10:21:45;;;;;;;5.32;2.67;;;;;;;;;;4997141;28;92170;-74
2022/03/19 10:24:23;;;;;;;4.07;2.60;;;;;;;;;;4999489;28;93575;-76
2022/03/19 10:26:50;;;;;;;6.85;2.42;;;;;;;;;;4994440;28;92513;-76
2022/03/19 10:29:25;;;;;;;3.72;2.25;;;;;;;;;;4996697;28;94302;-75
2022/03/19 10:31:56;;;;;;;10.05;2.47;;;;;;;;;;4995024;28;95554;-75
2022/03/19 10:34:22;;;;;;;2.50;1.77;;;;;;;;;;4995693;28;92442;-77
2022/03/19 10:36:48;;;;;;;6.65;2.40;;;;;;;;;;4996442;28;93349;-76
2022/03/19 10:39:19;;;;;;;5.82;2.55;;;;;;;;;;4996426;28;95063;-74
2022/03/19 10:41:46;;;;;;;5.57;2.20;;;;;;;;;;4992755;28;92220;-75
2022/03/19 10:44:16;;;;;;;3.90;2.03;;;;;;;;;;4995108;28;93287;-76
2022/03/19 10:46:50;;;;;;;9.75;2.50;;;;;;;;;;4999084;28;93625;-72
2022/03/19 10:49:17;;;;;;;8.13;2.63;;;;;;;;;;4993031;28;93126;-73
2022/03/19 10:51:48;;;;;;;4.93;2.45;;;;;;;;;;4996347;28;93186;-72
2022/03/19 10:54:15;;;;;;;9.60;2.38;;;;;;;;;;4996176;28;92444;-77
2022/03/19 10:56:42;;;;;;;6.03;2.45;;;;;;;;;;4994950;28;94813;-76
2022/03/19 10:59:08;;;;;;;10.88;2.60;;;;;;;;;;4996297;28;93617;-75
2022/03/19 11:01:36;;;;;;;2.97;1.98;;;;;;;;;;4995890;28;92368;-75
2022/03/19 11:04:04;;;;;;;5.35;2.00;;;;;;;;;;4995731;28;93525;-74
2022/03/19 11:06:40;;;;;;;7.97;2.45;;;;;;;;;;4996100;28;93227;-74
2022/03/19 11:09:11;;;;;;;2.90;1.92;;;;;;;;;;4998271;28;92391;-74
2022/03/19 11:11:42;;;;;;;9.20;2.00;;;;;;;;;;4996150;28;93478;-76
2022/03/19 11:14:10;;;;;;;7.80;2.40;;;;;;;;;;4996074;28;91971;-74
2022/03/19 11:16:37;;;;;;;7.80;2.60;;;;;;;;;;4996232;28;92692;-75
2022/03/19 11:19:04;;;;;;;6.15;2.28;;;;;;;;;;4995785;28;93397;-72
2022/03/19 11:21:31;;;;;;;4.45;2.03;;;;;;;;;;4994700;28;95436;-74
2022/03/19 11:24:02;;;;;;;6.35;1.88;;;;;;;;;;4986637;28;95605;-75
2022/03/19 11:26:29;;;;;;;7.00;2.17;;;;;;;;;;4992050;28;93604;-76
2022/03/19 11:28:56;;;;;;;9.65;2.17;;;;;;;;;;4996073;28;93360;-76
2022/03/19 11:31:24;;;;;;;6.57;2.58;;;;;;;;;;4999057;28;93253;-75
2022/03/19 11:33:51;;;;;;;4.97;2.28;;;;;;;;;;4994888;28;92492;-74
2022/03/19 11:36:17;;;;;;;5.50;2.20;;;;;;;;;;4996467;28;93879;-74
2022/03/19 11:38:54;;;;;;;4.10;2.30;;;;;;;;;;4996430;28;92108;-75
2022/03/19 11:41:30;;;;;;;5.00;1.73;;;;;;;;;;4990714;28;92312;-73
2022/03/19 11:44:15;;;;;;;7.00;2.40;;;;;;;;;;4995166;28;93428;-76
2022/03/19 11:46:54;;;;;;;4.70;2.35;;;;;;;;;;4991478;28;96531;-75
2022/03/19 11:49:42;;;;;;;5.32;2.13;;;;;;;;;;4996135;28;92267;-76
2022/03/19 11:52:09;;;;;;;7.95;2.70;;;;;;;;;;4992656;28;93297;-75
2022/03/19 11:54:55;;;;;;;7.70;2.78;;;;;;;;;;4996426;28;93678;-74
2022/03/19 11:57:24;;;;;;;4.55;2.70;;;;;;;;;;4997215;28;93804;-80
2022/03/19 11:59:55;;;;;;;4.15;2.90;;;;;;;;;;4999256;28;93635;-76
2022/03/19 12:02:21;;;;;;;4.03;2.40;;;;;;;;;;4998962;28;92455;-77
2022/03/19 12:04:52;;;;;;;5.40;2.30;;;;;;;;;;4998703;28;95066;-75
2022/03/19 12:07:39;;;;;;;3.00;1.88;;;;;;;;;;4998874;28;93037;-75
2022/03/19 12:10:07;;;;;;;16.05;2.05;;;;;;;;;;4999286;28;93090;-75
2022/03/19 12:12:34;;;;;;;10.98;2.05;;;;;;;;;;4997021;28;94835;-75
2022/03/19 12:15:21;;;;;;;6.43;1.80;;;;;;;;;;4998685;28;93652;-76
2022/03/19 12:17:47;;;;;;;2.40;2.00;;;;;;;;;;4998451;28;92429;-74
2022/03/19 12:20:13;;;;;;;6.10;2.10;;;;;;;;;;4998662;28;93916;-74
2022/03/19 12:22:41;;;;;;;4.45;2.38;;;;;;;;;;4998549;28;92439;-76
2022/03/19 12:25:32;;;;;;;4.00;1.70;;;;;;;;;;4997826;28;93868;-76
2022/03/19 12:27:58;;;;;;;4.32;1.90;;;;;;;;;;4999421;28;93221;-74
2022/03/19 12:30:25;;;;;;;2.13;1.63;;;;;;;;;;5000003;28;91619;-76
2022/03/19 12:32:56;;;;;;;2.22;1.40;;;;;;;;;;4999093;28;92638;-75
2022/03/19 12:35:23;;;;;;;3.92;1.40;;;;;;;;;;4998803;28;93785;-76
2022/03/19 12:37:53;;;;;;;1.88;1.30;;;;;;;;;;5000729;28;94588;-75
2022/03/19 12:40:20;;;;;;;4.45;1.30;;;;;;;;;;4998803;28;93723;-75
2022/03/19 12:42:51;;;;;;;1.50;1.40;;;;;;;;;;4998777;28;92918;-75
2022/03/19 12:45:18;;;;;;;6.27;1.43;;;;;;;;;;4999025;28;93819;-75
2022/03/19 12:47:49;;;;;;;2.53;1.50;;;;;;;;;;4998771;28;93811;-75
2022/03/19 12:50:16;;;;;;;7.57;2.27;;;;;;;;;;4998743;28;92313;-74
2022/03/19 12:52:43;;;;;;;4.03;1.52;;;;;;;;;;4998954;28;93356;-76
2022/03/19 12:55:18;;;;;;;4.57;1.60;;;;;;;;;;4998219;28;92559;-75
2022/03/19 12:57:53;;;;;;;4.10;1.67;;;;;;;;;;4998818;28;92204;-76
2022/03/19 13:00:19;;;;;;;2.80;1.80;;;;;;;;;;5001961;28;93397;-75
2022/03/19 13:02:47;;;;;;;12.20;2.30;;;;;;;;;;4996694;28;94758;-75
2022/03/19 13:05:14;;;;;;;5.22;1.80;;;;;;;;;;4997770;28;96047;-76
2022/03/19 13:07:58;;;;;;;4.82;2.20;;;;;;;;;;4998414;28;93558;-76
2022/03/19 13:10:25;;;;;;;4.45;1.63;;;;;;;;;;4998389;28;92242;-75
2022/03/19 13:13:07;;;;;;;3.20;1.80;;;;;;;;;;4998213;28;94504;-76
2022/03/19 13:15:33;;;;;;;2.55;1.55;;;;;;;;;;4998423;28;93813;-75
2022/03/19 13:18:01;;;;;;;5.47;1.60;;;;;;;;;;4997555;28;92283;-76
2022/03/19 13:20:27;;;;;;;2.70;1.60;;;;;;;;;;4999069;28;93279;-75
2022/03/19 13:23:03;;;;;;;4.97;1.48;;;;;;;;;;4997562;28;96284;-74
2022/03/19 13:25:30;;;;;;;5.25;1.65;;;;;;;;;;4998304;28;93278;-75
2022/03/19 13:28:03;;;;;;;3.95;1.50;;;;;;;;;;4996626;28;96119;-75
2022/03/19 13:30:30;;;;;;;4.55;1.67;;;;;;;;;;4998478;28;92579;-75
2022/03/19 13:32:57;;;;;;;3.05;1.40;;;;;;;;;;4998348;28;93361;-74
2022/03/19 13:35:39;;;;;;;2.80;1.48;;;;;;;;;;4998126;28;93532;-74
2022/03/19 13:38:10;;;;;;;3.70;1.30;;;;;;;;;;4998319;28;92276;-75
2022/03/19 13:40:38;;;;;;;3.15;1.60;;;;;;;;;;4998201;28;94576;-75
2022/03/19 13:43:04;;;;;;;3.08;1.92;;;;;;;;;;4998100;28;92411;-75
2022/03/19 13:45:32;;;;;;;3.40;1.88;;;;;;;;;;5001527;28;91451;-75
2022/03/19 13:48:06;;;;;;;5.97;1.60;;;;;;;;;;4996597;28;93112;-75
2022/03/19 13:50:36;;;;;;;3.25;1.70;;;;;;;;;;4997240;28;92578;-74
2022/03/19 13:53:07;;;;;;;7.63;1.50;;;;;;;;;;4996077;28;94840;-78
2022/03/19 13:55:36;;;;;;;1.92;1.40;;;;;;;;;;4996949;28;93494;-75
2022/03/19 13:58:03;;;;;;;3.88;1.42;;;;;;;;;;4997482;28;92355;-75
2022/03/19 14:00:31;;;;;;;1.85;1.17;;;;;;;;;;4999806;28;93360;-76
2022/03/19 14:03:10;;;;;;;3.05;1.52;;;;;;;;;;5000978;28;93167;-78
2022/03/19 14:05:37;;;;;;;2.80;1.30;;;;;;;;;;4995996;28;92355;-77
2022/03/19 14:08:04;;;;;;;3.08;1.27;;;;;;;;;;5000205;28;93303;-80
2022/03/19 14:10:33;;;;;;;9.27;1.45;;;;;;;;;;4997962;28;91573;-80
2022/03/19 14:13:05;;;;;;;7.20;1.58;;;;;;;;;;4996454;28;92712;-77
2022/03/19 14:15:51;;;;;;;4.35;1.35;;;;;;;;;;4996628;28;94422;-78
2022/03/19 14:18:28;;;;;;;2.88;1.63;;;;;;;;;;4994777;28;94638;-76
2022/03/19 14:20:55;;;;;;;4.68;1.73;;;;;;;;;;4997219;28;95753;-74
2022/03/19 14:23:23;;;;;;;2.90;1.50;;;;;;;;;;4996944;28;93653;-79
2022/03/19 14:25:51;;;;;;;4.93;1.75;;;;;;;;;;4996559;28;92566;-78
2022/03/19 14:28:18;;;;;;;4.68;1.40;;;;;;;;;;4996890;28;93593;-78
2022/03/19 14:30:46;;;;;;;7.18;1.70;;;;;;;;;;5000104;28;93435;-80
2022/03/19 14:33:13;;;;;;;3.63;1.58;;;;;;;;;;4996764;28;93339;-76
2022/03/19 14:35:47;;;;;;;3.58;1.48;;;;;;;;;;4996483;28;93769;-76
2022/03/19 14:38:17;;;;;;;1.70;1.33;;;;;;;;;;4996774;28;92355;-77
2022/03/19 14:40:44;;;;;;;3.17;1.30;;;;;;;;;;4996645;28;93720;-74
2022/03/19 14:43:15;;;;;;;4.03;1.50;;;;;;;;;;4994028;28;96770;-76
2022/03/19 14:45:42;;;;;;;4.47;1.05;;;;;;;;;;4996742;28;92378;-75
2022/03/19 14:48:10;;;;;;;1.08;0.98;;;;;;;;;;4996800;28;92375;-73
2022/03/19 14:50:42;;;;;;;1.65;0.90;;;;;;;;;;4999660;28;93730;-75
2022/03/19 14:53:08;;;;;;;4.90;1.17;;;;;;;;;;4995293;28;94203;-76
2022/03/19 14:55:37;;;;;;;1.95;0.82;;;;;;;;;;4990840;28;96836;-74